sensor_id;sensor_type;location;lat;lon;timestamp;pressure;altitude;pressure_sealevel;temperature
60003;BMP280;46322;52.018;8.702;2023-03-11T00:04:58;98831.91;;;9.16
60003;BMP280;46322;52.018;8.702;2023-03-11T00:09:59;98833.78;;;9.59
60003;BMP280;46322;52.018;8.702;2023-03-11T00:14:59;98840.09;;;9.70
60003;BMP280;46322;52.018;8.702;2023-03-11T00:19:59;98856.91;;;9.78
60003;BMP280;46322;52.018;8.702;2023-03-11T00:25:00;98874.50;;;8.98
60003;BMP280;46322;52.018;8.702;2023-03-11T00:30:00;98874.03;;;9.09
60003;BMP280;46322;52.018;8.702;2023-03-11T00:35:00;98898.94;;;9.23
60003;BMP280;46322;52.018;8.702;2023-03-11T00:40:01;98907.06;;;9.58
60003;BMP280;46322;52.018;8.702;2023-03-11T00:45:01;98922.72;;;10.26
60003;BMP280;46322;52.018;8.702;2023-03-11T00:50:01;98928.47;;;9.53
60003;BMP280;46322;52.018;8.702;2023-03-11T00:55:02;98945.69;;;10.07
60003;BMP280;46322;52.018;8.702;2023-03-11T01:00:02;98958.69;;;10.27
60003;BMP280;46322;52.018;8.702;2023-03-11T01:05:04;98967.75;;;10.42
60003;BMP280;46322;52.018;8.702;2023-03-11T01:10:08;98975.59;;;10.07
60003;BMP280;46322;52.018;8.702;2023-03-11T01:15:15;98982.75;;;9.63
60003;BMP280;46322;52.018;8.702;2023-03-11T01:20:17;99000.28;;;9.40
60003;BMP280;46322;52.018;8.702;2023-03-11T01:25:18;98991.97;;;9.69
60003;BMP280;46322;52.018;8.702;2023-03-11T01:30:22;98996.63;;;9.44
60003;BMP280;46322;52.018;8.702;2023-03-11T01:35:24;99000.88;;;11.03
60003;BMP280;46322;52.018;8.702;2023-03-11T01:40:35;99006.69;;;9.82
60003;BMP280;46322;52.018;8.702;2023-03-11T01:50:41;99025.28;;;10.14
60003;BMP280;46322;52.018;8.702;2023-03-11T01:55:43;99023.41;;;10.14
60003;BMP280;46322;52.018;8.702;2023-03-11T02:00:44;99026.44;;;10.29
60003;BMP280;46322;52.018;8.702;2023-03-11T02:05:46;99034.84;;;9.34
60003;BMP280;46322;52.018;8.702;2023-03-11T02:10:51;99037.91;;;8.96
60003;BMP280;46322;52.018;8.702;2023-03-11T02:15:52;99040.00;;;8.79
60003;BMP280;46322;52.018;8.702;2023-03-11T02:21:12;99038.44;;;9.14
60003;BMP280;46322;52.018;8.702;2023-03-11T02:26:20;99051.41;;;9.19
60003;BMP280;46322;52.018;8.702;2023-03-11T02:31:21;99052.16;;;9.84
60003;BMP280;46322;52.018;8.702;2023-03-11T02:36:35;99065.09;;;10.02
60003;BMP280;46322;52.018;8.702;2023-03-11T02:41:41;99066.06;;;9.17
60003;BMP280;46322;52.018;8.702;2023-03-11T02:46:43;99080.13;;;9.45
60003;BMP280;46322;52.018;8.702;2023-03-11T02:51:44;99070.97;;;9.83
60003;BMP280;46322;52.018;8.702;2023-03-11T02:56:44;99068.69;;;9.29
60003;BMP280;46322;52.018;8.702;2023-03-11T03:01:44;99081.84;;;9.65
60003;BMP280;46322;52.018;8.702;2023-03-11T03:06:45;99084.31;;;10.14
60003;BMP280;46322;52.018;8.702;2023-03-11T03:11:45;99088.56;;;9.63
60003;BMP280;46322;52.018;8.702;2023-03-11T03:16:45;99103.81;;;11.36
60003;BMP280;46322;52.018;8.702;2023-03-11T03:21:46;99113.16;;;10.04
60003;BMP280;46322;52.018;8.702;2023-03-11T03:26:46;99123.25;;;10.73
60003;BMP280;46322;52.018;8.702;2023-03-11T03:31:46;99129.72;;;9.36
60003;BMP280;46322;52.018;8.702;2023-03-11T03:36:46;99131.09;;;10.10
60003;BMP280;46322;52.018;8.702;2023-03-11T03:41:47;99134.25;;;9.88
60003;BMP280;46322;52.018;8.702;2023-03-11T03:46:47;99150.19;;;10.75
60003;BMP280;46322;52.018;8.702;2023-03-11T03:51:47;99150.63;;;9.78
60003;BMP280;46322;52.018;8.702;2023-03-11T03:56:47;99172.31;;;10.83
60003;BMP280;46322;52.018;8.702;2023-03-11T04:01:48;99174.94;;;8.86
60003;BMP280;46322;52.018;8.702;2023-03-11T04:06:48;99176.69;;;10.32
60003;BMP280;46322;52.018;8.702;2023-03-11T04:11:48;99181.91;;;11.03
60003;BMP280;46322;52.018;8.702;2023-03-11T04:16:48;99179.25;;;9.88
60003;BMP280;46322;52.018;8.702;2023-03-11T04:21:49;99183.56;;;10.48
60003;BMP280;46322;52.018;8.702;2023-03-11T04:26:49;99190.25;;;10.58
60003;BMP280;46322;52.018;8.702;2023-03-11T04:31:49;99201.69;;;10.46
60003;BMP280;46322;52.018;8.702;2023-03-11T04:36:51;99211.38;;;10.70
60003;BMP280;46322;52.018;8.702;2023-03-11T04:41:51;99211.38;;;10.26
60003;BMP280;46322;52.018;8.702;2023-03-11T04:46:52;99210.56;;;9.98
60003;BMP280;46322;52.018;8.702;2023-03-11T04:51:52;99224.31;;;10.44
60003;BMP280;46322;52.018;8.702;2023-03-11T04:56:52;99239.25;;;11.08
60003;BMP280;46322;52.018;8.702;2023-03-11T05:01:52;99246.63;;;10.43
60003;BMP280;46322;52.018;8.702;2023-03-11T05:06:53;99242.56;;;10.33
60003;BMP280;46322;52.018;8.702;2023-03-11T05:11:53;99252.19;;;10.25
60003;BMP280;46322;52.018;8.702;2023-03-11T05:16:53;99254.31;;;10.20
60003;BMP280;46322;52.018;8.702;2023-03-11T05:21:53;99258.19;;;10.10
60003;BMP280;46322;52.018;8.702;2023-03-11T05:26:54;99269.25;;;10.68
60003;BMP280;46322;52.018;8.702;2023-03-11T05:31:54;99268.47;;;9.51
60003;BMP280;46322;52.018;8.702;2023-03-11T05:36:55;99279.47;;;9.53
60003;BMP280;46322;52.018;8.702;2023-03-11T05:41:55;99281.78;;;10.83
60003;BMP280;46322;52.018;8.702;2023-03-11T05:46:55;99291.63;;;10.03
60003;BMP280;46322;52.018;8.702;2023-03-11T05:51:55;99290.75;;;11.54
60003;BMP280;46322;52.018;8.702;2023-03-11T05:56:56;99301.72;;;10.37
60003;BMP280;46322;52.018;8.702;2023-03-11T06:01:56;99302.28;;;10.06
60003;BMP280;46322;52.018;8.702;2023-03-11T06:06:56;99308.69;;;10.17
60003;BMP280;46322;52.018;8.702;2023-03-11T06:11:57;99309.47;;;10.58
60003;BMP280;46322;52.018;8.702;2023-03-11T06:16:58;99326.63;;;11.04
60003;BMP280;46322;52.018;8.702;2023-03-11T06:21:58;99325.50;;;11.33
60003;BMP280;46322;52.018;8.702;2023-03-11T06:26:58;99326.16;;;11.14
60003;BMP280;46322;52.018;8.702;2023-03-11T06:31:59;99336.22;;;10.53
60003;BMP280;46322;52.018;8.702;2023-03-11T06:36:59;99354.19;;;10.47
60003;BMP280;46322;52.018;8.702;2023-03-11T06:41:59;99362.66;;;12.16
60003;BMP280;46322;52.018;8.702;2023-03-11T06:47:01;99376.47;;;12.05
60003;BMP280;46322;52.018;8.702;2023-03-11T06:52:02;99383.81;;;11.61
60003;BMP280;46322;52.018;8.702;2023-03-11T06:57:06;99389.78;;;11.74
60003;BMP280;46322;52.018;8.702;2023-03-11T07:02:09;99393.66;;;11.17
60003;BMP280;46322;52.018;8.702;2023-03-11T07:07:12;99410.56;;;10.84
60003;BMP280;46322;52.018;8.702;2023-03-11T07:12:12;99419.72;;;11.59
60003;BMP280;46322;52.018;8.702;2023-03-11T07:17:12;99420.50;;;11.15
60003;BMP280;46322;52.018;8.702;2023-03-11T07:22:13;99434.13;;;11.14
60003;BMP280;46322;52.018;8.702;2023-03-11T07:27:14;99430.75;;;10.89
60003;BMP280;46322;52.018;8.702;2023-03-11T07:32:14;99443.31;;;11.92
60003;BMP280;46322;52.018;8.702;2023-03-11T07:37:14;99448.53;;;10.88
60003;BMP280;46322;52.018;8.702;2023-03-11T07:42:15;99462.72;;;10.07
60003;BMP280;46322;52.018;8.702;2023-03-11T07:47:15;99472.91;;;11.06
60003;BMP280;46322;52.018;8.702;2023-03-11T07:52:15;99486.53;;;10.93
60003;BMP280;46322;52.018;8.702;2023-03-11T07:57:16;99496.16;;;10.73
60003;BMP280;46322;52.018;8.702;2023-03-11T08:02:16;99503.56;;;10.31
60003;BMP280;46322;52.018;8.702;2023-03-11T08:07:16;99514.50;;;10.29
60003;BMP280;46322;52.018;8.702;2023-03-11T08:12:16;99522.47;;;11.30
60003;BMP280;46322;52.018;8.702;2023-03-11T08:17:17;99533.94;;;10.00
60003;BMP280;46322;52.018;8.702;2023-03-11T08:22:17;99542.41;;;11.00
60003;BMP280;46322;52.018;8.702;2023-03-11T08:27:17;99545.41;;;10.37
60003;BMP280;46322;52.018;8.702;2023-03-11T08:32:18;99549.75;;;10.78
60003;BMP280;46322;52.018;8.702;2023-03-11T08:37:18;99549.25;;;11.25
60003;BMP280;46322;52.018;8.702;2023-03-11T08:42:18;99561.84;;;11.04
60003;BMP280;46322;52.018;8.702;2023-03-11T08:47:18;99558.25;;;11.64
60003;BMP280;46322;52.018;8.702;2023-03-11T08:52:19;99562.13;;;12.89
60003;BMP280;46322;52.018;8.702;2023-03-11T08:57:19;99574.69;;;11.14
60003;BMP280;46322;52.018;8.702;2023-03-11T09:02:19;99575.72;;;12.68
60003;BMP280;46322;52.018;8.702;2023-03-11T09:07:19;99583.84;;;12.75
60003;BMP280;46322;52.018;8.702;2023-03-11T09:12:20;99594.13;;;10.94
60003;BMP280;46322;52.018;8.702;2023-03-11T09:17:20;99594.28;;;13.35
60003;BMP280;46322;52.018;8.702;2023-03-11T09:22:21;99598.38;;;12.62
60003;BMP280;46322;52.018;8.702;2023-03-11T09:27:21;99604.38;;;12.43
60003;BMP280;46322;52.018;8.702;2023-03-11T09:32:21;99602.78;;;12.58
60003;BMP280;46322;52.018;8.702;2023-03-11T09:37:22;99614.25;;;13.64
60003;BMP280;46322;52.018;8.702;2023-03-11T10:03:42;99610.88;;;13.48
60003;BMP280;46322;52.018;8.702;2023-03-11T10:08:45;99620.53;;;12.07
60003;BMP280;46322;52.018;8.702;2023-03-11T10:14:16;99622.75;;;13.15
60003;BMP280;46322;52.018;8.702;2023-03-11T10:19:27;99634.38;;;12.75
60003;BMP280;46322;52.018;8.702;2023-03-11T10:24:49;99625.00;;;13.90
60003;BMP280;46322;52.018;8.702;2023-03-11T10:35:28;99645.78;;;12.60
60003;BMP280;46322;52.018;8.702;2023-03-11T10:40:34;99655.69;;;14.23
60003;BMP280;46322;52.018;8.702;2023-03-11T10:45:40;99661.50;;;14.28
60003;BMP280;46322;52.018;8.702;2023-03-11T10:51:14;99663.34;;;12.81
60003;BMP280;46322;52.018;8.702;2023-03-11T11:01:28;99663.66;;;13.61
60003;BMP280;46322;52.018;8.702;2023-03-11T11:06:33;99662.44;;;14.17
60003;BMP280;46322;52.018;8.702;2023-03-11T11:11:34;99672.97;;;14.78
60003;BMP280;46322;52.018;8.702;2023-03-11T11:16:34;99670.50;;;14.66
60003;BMP280;46322;52.018;8.702;2023-03-11T11:21:38;99669.97;;;15.06
60003;BMP280;46322;52.018;8.702;2023-03-11T11:26:38;99669.41;;;14.97
60003;BMP280;46322;52.018;8.702;2023-03-11T11:31:44;99682.34;;;14.46
60003;BMP280;46322;52.018;8.702;2023-03-11T11:36:44;99661.91;;;13.88
60003;BMP280;46322;52.018;8.702;2023-03-11T11:41:45;99673.72;;;14.56
60003;BMP280;46322;52.018;8.702;2023-03-11T11:47:09;99661.28;;;15.13
60003;BMP280;46322;52.018;8.702;2023-03-11T11:52:15;99667.13;;;15.22
60003;BMP280;46322;52.018;8.702;2023-03-11T11:57:19;99662.06;;;14.18
60003;BMP280;46322;52.018;8.702;2023-03-11T12:07:28;99664.78;;;15.47
60003;BMP280;46322;52.018;8.702;2023-03-11T12:12:35;99665.69;;;15.95
60003;BMP280;46322;52.018;8.702;2023-03-11T12:17:38;99671.50;;;14.81
60003;BMP280;46322;52.018;8.702;2023-03-11T12:32:53;99657.47;;;15.14
60003;BMP280;46322;52.018;8.702;2023-03-11T12:38:00;99655.72;;;17.88
60003;BMP280;46322;52.018;8.702;2023-03-11T12:43:02;99680.78;;;16.14
60003;BMP280;46322;52.018;8.702;2023-03-11T12:53:28;99684.13;;;18.46
60003;BMP280;46322;52.018;8.702;2023-03-11T12:59:01;99670.28;;;18.58
60003;BMP280;46322;52.018;8.702;2023-03-11T13:09:20;99676.03;;;18.85
60003;BMP280;46322;52.018;8.702;2023-03-11T13:14:28;99689.16;;;20.60
60003;BMP280;46322;52.018;8.702;2023-03-11T13:29:46;99694.69;;;21.40
60003;BMP280;46322;52.018;8.702;2023-03-11T13:35:00;99699.50;;;22.53
60003;BMP280;46322;52.018;8.702;2023-03-11T13:45:29;99700.91;;;22.38
60003;BMP280;46322;52.018;8.702;2023-03-11T13:50:34;99696.63;;;19.20
60003;BMP280;46322;52.018;8.702;2023-03-11T13:55:39;99698.44;;;19.45
60003;BMP280;46322;52.018;8.702;2023-03-11T14:00:47;99710.94;;;18.11
60003;BMP280;46322;52.018;8.702;2023-03-11T14:05:49;99716.31;;;18.14
60003;BMP280;46322;52.018;8.702;2023-03-11T14:10:56;99715.13;;;19.84
60003;BMP280;46322;52.018;8.702;2023-03-11T14:16:07;99716.25;;;17.86
60003;BMP280;46322;52.018;8.702;2023-03-11T14:21:15;99716.94;;;17.61
60003;BMP280;46322;52.018;8.702;2023-03-11T14:26:26;99731.66;;;18.74
60003;BMP280;46322;52.018;8.702;2023-03-11T14:36:27;99734.00;;;20.77
60003;BMP280;46322;52.018;8.702;2023-03-11T14:41:28;99732.75;;;22.27
60003;BMP280;46322;52.018;8.702;2023-03-11T14:46:28;99749.53;;;19.38
60003;BMP280;46322;52.018;8.702;2023-03-11T14:51:30;99752.66;;;20.54
60003;BMP280;46322;52.018;8.702;2023-03-11T14:56:36;99758.72;;;21.67
60003;BMP280;46322;52.018;8.702;2023-03-11T15:01:41;99755.53;;;22.69
60003;BMP280;46322;52.018;8.702;2023-03-11T15:06:42;99759.31;;;22.94
60003;BMP280;46322;52.018;8.702;2023-03-11T15:11:48;99756.09;;;23.00
60003;BMP280;46322;52.018;8.702;2023-03-11T15:16:49;99748.13;;;22.73
60003;BMP280;46322;52.018;8.702;2023-03-11T15:21:50;99747.44;;;24.41
60003;BMP280;46322;52.018;8.702;2023-03-11T15:26:55;99745.25;;;23.91
60003;BMP280;46322;52.018;8.702;2023-03-11T15:31:56;99742.97;;;24.64
60003;BMP280;46322;52.018;8.702;2023-03-11T15:36:59;99735.44;;;25.73
60003;BMP280;46322;52.018;8.702;2023-03-11T15:46:59;99737.22;;;25.29
60003;BMP280;46322;52.018;8.702;2023-03-11T15:52:00;99742.25;;;26.90
60003;BMP280;46322;52.018;8.702;2023-03-11T15:57:04;99741.50;;;26.67
60003;BMP280;46322;52.018;8.702;2023-03-11T16:02:17;99740.00;;;26.45
60003;BMP280;46322;52.018;8.702;2023-03-11T16:07:19;99741.41;;;24.50
60003;BMP280;46322;52.018;8.702;2023-03-11T16:12:21;99755.34;;;20.95
60003;BMP280;46322;52.018;8.702;2023-03-11T16:17:21;99749.63;;;18.17
60003;BMP280;46322;52.018;8.702;2023-03-11T16:22:31;99751.22;;;18.60
60003;BMP280;46322;52.018;8.702;2023-03-11T16:27:32;99744.13;;;19.41
60003;BMP280;46322;52.018;8.702;2023-03-11T16:32:32;99747.59;;;17.71
60003;BMP280;46322;52.018;8.702;2023-03-11T16:37:32;99750.94;;;17.47
60003;BMP280;46322;52.018;8.702;2023-03-11T16:42:32;99761.06;;;16.61
60003;BMP280;46322;52.018;8.702;2023-03-11T16:47:32;99756.19;;;18.65
60003;BMP280;46322;52.018;8.702;2023-03-11T16:52:33;99767.22;;;16.66
60003;BMP280;46322;52.018;8.702;2023-03-11T16:57:33;99761.00;;;15.84
60003;BMP280;46322;52.018;8.702;2023-03-11T17:02:33;99759.44;;;16.13
60003;BMP280;46322;52.018;8.702;2023-03-11T17:07:33;99759.63;;;15.63
60003;BMP280;46322;52.018;8.702;2023-03-11T17:12:34;99765.13;;;15.78
60003;BMP280;46322;52.018;8.702;2023-03-11T17:17:34;99776.34;;;17.05
60003;BMP280;46322;52.018;8.702;2023-03-11T17:22:34;99769.84;;;16.58
60003;BMP280;46322;52.018;8.702;2023-03-11T17:27:34;99777.97;;;17.24
60003;BMP280;46322;52.018;8.702;2023-03-11T17:32:34;99787.03;;;16.57
60003;BMP280;46322;52.018;8.702;2023-03-11T17:37:35;99785.75;;;15.77
60003;BMP280;46322;52.018;8.702;2023-03-11T17:42:37;99793.38;;;14.77
60003;BMP280;46322;52.018;8.702;2023-03-11T17:47:38;99793.38;;;14.99
60003;BMP280;46322;52.018;8.702;2023-03-11T17:52:38;99794.56;;;15.02
60003;BMP280;46322;52.018;8.702;2023-03-11T17:57:38;99789.78;;;13.88
60003;BMP280;46322;52.018;8.702;2023-03-11T18:02:38;99799.06;;;14.98
60003;BMP280;46322;52.018;8.702;2023-03-11T18:07:39;99800.72;;;15.29
60003;BMP280;46322;52.018;8.702;2023-03-11T18:12:43;99808.19;;;14.74
60003;BMP280;46322;52.018;8.702;2023-03-11T18:17:47;99807.69;;;15.11
60003;BMP280;46322;52.018;8.702;2023-03-11T18:22:47;99803.84;;;13.22
60003;BMP280;46322;52.018;8.702;2023-03-11T18:27:47;99803.72;;;14.20
60003;BMP280;46322;52.018;8.702;2023-03-11T18:32:48;99808.63;;;14.57
60003;BMP280;46322;52.018;8.702;2023-03-11T18:37:48;99811.97;;;14.12
60003;BMP280;46322;52.018;8.702;2023-03-11T18:42:51;99816.66;;;15.03
60003;BMP280;46322;52.018;8.702;2023-03-11T18:47:51;99819.47;;;13.55
60003;BMP280;46322;52.018;8.702;2023-03-11T18:52:51;99822.75;;;14.38
60003;BMP280;46322;52.018;8.702;2023-03-11T18:57:51;99828.38;;;15.17
60003;BMP280;46322;52.018;8.702;2023-03-11T19:02:52;99821.00;;;13.88
60003;BMP280;46322;52.018;8.702;2023-03-11T19:07:53;99825.59;;;12.81
60003;BMP280;46322;52.018;8.702;2023-03-11T19:12:53;99822.56;;;12.66
60003;BMP280;46322;52.018;8.702;2023-03-11T19:17:53;99816.53;;;12.14
60003;BMP280;46322;52.018;8.702;2023-03-11T19:22:53;99806.81;;;11.57
60003;BMP280;46322;52.018;8.702;2023-03-11T19:27:54;99804.06;;;12.30
60003;BMP280;46322;52.018;8.702;2023-03-11T19:32:55;99820.50;;;13.66
60003;BMP280;46322;52.018;8.702;2023-03-11T19:37:55;99832.63;;;12.33
60003;BMP280;46322;52.018;8.702;2023-03-11T19:42:56;99832.78;;;12.24
60003;BMP280;46322;52.018;8.702;2023-03-11T19:47:56;99819.88;;;11.62
60003;BMP280;46322;52.018;8.702;2023-03-11T19:52:57;99825.69;;;12.28
60003;BMP280;46322;52.018;8.702;2023-03-11T19:57:57;99818.34;;;11.61
60003;BMP280;46322;52.018;8.702;2023-03-11T20:02:57;99814.94;;;11.15
60003;BMP280;46322;52.018;8.702;2023-03-11T20:07:58;99823.31;;;11.87
60003;BMP280;46322;52.018;8.702;2023-03-11T20:12:58;99828.25;;;13.91
60003;BMP280;46322;52.018;8.702;2023-03-11T20:17:58;99836.41;;;14.75
60003;BMP280;46322;52.018;8.702;2023-03-11T20:22:59;99828.34;;;14.72
60003;BMP280;46322;52.018;8.702;2023-03-11T20:28:00;99840.81;;;12.96
60003;BMP280;46322;52.018;8.702;2023-03-11T20:33:00;99836.66;;;14.47
60003;BMP280;46322;52.018;8.702;2023-03-11T20:38:00;99847.63;;;14.42
60003;BMP280;46322;52.018;8.702;2023-03-11T20:43:01;99841.66;;;12.56
60003;BMP280;46322;52.018;8.702;2023-03-11T20:48:01;99853.03;;;12.04
60003;BMP280;46322;52.018;8.702;2023-03-11T20:53:01;99863.81;;;12.88
60003;BMP280;46322;52.018;8.702;2023-03-11T20:58:01;99864.63;;;13.04
60003;BMP280;46322;52.018;8.702;2023-03-11T21:03:01;99849.50;;;11.88
60003;BMP280;46322;52.018;8.702;2023-03-11T21:08:03;99842.19;;;11.36
60003;BMP280;46322;52.018;8.702;2023-03-11T21:13:03;99847.06;;;11.46
60003;BMP280;46322;52.018;8.702;2023-03-11T21:18:04;99845.66;;;11.73
60003;BMP280;46322;52.018;8.702;2023-03-11T21:23:04;99857.59;;;11.79
60003;BMP280;46322;52.018;8.702;2023-03-11T21:28:04;99856.41;;;11.19
60003;BMP280;46322;52.018;8.702;2023-03-11T21:33:04;99850.19;;;11.85
60003;BMP280;46322;52.018;8.702;2023-03-11T21:38:05;99851.41;;;10.64
60003;BMP280;46322;52.018;8.702;2023-03-11T21:43:05;99856.94;;;10.00
60003;BMP280;46322;52.018;8.702;2023-03-11T21:48:05;99851.72;;;9.19
60003;BMP280;46322;52.018;8.702;2023-03-11T21:53:05;99861.50;;;9.35
60003;BMP280;46322;52.018;8.702;2023-03-11T21:58:06;99849.19;;;9.57
60003;BMP280;46322;52.018;8.702;2023-03-11T22:03:06;99853.94;;;11.14
60003;BMP280;46322;52.018;8.702;2023-03-11T22:08:06;99849.19;;;9.95
60003;BMP280;46322;52.018;8.702;2023-03-11T22:13:07;99852.59;;;9.95
60003;BMP280;46322;52.018;8.702;2023-03-11T22:18:07;99851.63;;;10.09
60003;BMP280;46322;52.018;8.702;2023-03-11T22:23:07;99857.75;;;9.45
60003;BMP280;46322;52.018;8.702;2023-03-11T22:28:08;99860.75;;;9.26
60003;BMP280;46322;52.018;8.702;2023-03-11T22:33:08;99865.44;;;9.21
60003;BMP280;46322;52.018;8.702;2023-03-11T22:38:08;99862.13;;;9.41
60003;BMP280;46322;52.018;8.702;2023-03-11T22:43:09;99862.75;;;9.38
60003;BMP280;46322;52.018;8.702;2023-03-11T22:48:09;99856.06;;;9.87
60003;BMP280;46322;52.018;8.702;2023-03-11T22:53:13;99865.94;;;9.78
60003;BMP280;46322;52.018;8.702;2023-03-11T22:58:13;99871.13;;;9.95
60003;BMP280;46322;52.018;8.702;2023-03-11T23:03:13;99865.19;;;11.11
60003;BMP280;46322;52.018;8.702;2023-03-11T23:08:14;99869.00;;;11.35
60003;BMP280;46322;52.018;8.702;2023-03-11T23:13:15;99866.13;;;11.15
60003;BMP280;46322;52.018;8.702;2023-03-11T23:18:15;99875.19;;;10.94
60003;BMP280;46322;52.018;8.702;2023-03-11T23:23:15;99877.50;;;11.73
60003;BMP280;46322;52.018;8.702;2023-03-11T23:28:16;99879.41;;;10.53
60003;BMP280;46322;52.018;8.702;2023-03-11T23:33:16;99876.75;;;10.53
60003;BMP280;46322;52.018;8.702;2023-03-11T23:38:16;99872.81;;;10.00
60003;BMP280;46322;52.018;8.702;2023-03-11T23:43:16;99876.75;;;10.74
60003;BMP280;46322;52.018;8.702;2023-03-11T23:48:17;99874.25;;;11.31
60003;BMP280;46322;52.018;8.702;2023-03-11T23:53:18;99881.34;;;11.52
60003;BMP280;46322;52.018;8.702;2023-03-11T23:58:20;99891.63;;;11.08
